sensor_id;sensor_type;location;lat;lon;timestamp;pressure;altitude;pressure_sealevel;temperature;humidity
67038;BME280;53940;53.204;6.590;2024-01-11T00:02:45;103347.28;;;21.24;40.59
67038;BME280;53940;53.204;6.590;2024-01-11T00:05:46;103349.97;;;21.24;40.65
67038;BME280;53940;53.204;6.590;2024-01-11T00:08:46;103354.56;;;21.22;40.92
67038;BME280;53940;53.204;6.590;2024-01-11T00:11:46;103357.25;;;21.22;40.61
67038;BME280;53940;53.204;6.590;2024-01-11T00:14:46;103357.25;;;21.22;40.53
67038;BME280;53940;53.204;6.590;2024-01-11T00:17:47;103354.56;;;21.22;40.42
67038;BME280;53940;53.204;6.590;2024-01-11T00:20:47;103354.72;;;21.19;40.49
67038;BME280;53940;53.204;6.590;2024-01-11T00:23:48;103356.44;;;21.20;40.22
67038;BME280;53940;53.204;6.590;2024-01-11T00:26:49;103364.47;;;21.20;40.43
67038;BME280;53940;53.204;6.590;2024-01-11T00:29:49;103354.72;;;21.19;40.49
67038;BME280;53940;53.204;6.590;2024-01-11T00:32:50;103357.38;;;21.19;40.33
67038;BME280;53940;53.204;6.590;2024-01-11T00:35:50;103346.66;;;21.19;40.08
67038;BME280;53940;53.204;6.590;2024-01-11T00:38:50;103348.56;;;21.17;40.27
67038;BME280;53940;53.204;6.590;2024-01-11T00:41:51;103359.31;;;21.17;40.13
67038;BME280;53940;53.204;6.590;2024-01-11T00:44:51;103353.94;;;21.17;40.28
67038;BME280;53940;53.204;6.590;2024-01-11T00:47:51;103356.63;;;21.17;40.16
67038;BME280;53940;53.204;6.590;2024-01-11T00:50:52;103346.84;;;21.16;39.99
67038;BME280;53940;53.204;6.590;2024-01-11T00:53:52;103338.81;;;21.16;40.10
67038;BME280;53940;53.204;6.590;2024-01-11T00:56:52;103340.59;;;21.15;39.75
67038;BME280;53940;53.204;6.590;2024-01-11T00:59:53;103341.47;;;21.16;39.93
67038;BME280;53940;53.204;6.590;2024-01-11T01:02:53;103343.22;;;21.17;39.91
67038;BME280;53940;53.204;6.590;2024-01-11T01:05:54;103337.84;;;21.17;39.89
67038;BME280;53940;53.204;6.590;2024-01-11T01:08:55;103333.34;;;21.17;39.75
67038;BME280;53940;53.204;6.590;2024-01-11T01:11:55;103337.84;;;21.17;39.77
67038;BME280;53940;53.204;6.590;2024-01-11T01:14:56;103336.97;;;21.16;39.81
67038;BME280;53940;53.204;6.590;2024-01-11T01:17:56;103337.84;;;21.17;39.39
67038;BME280;53940;53.204;6.590;2024-01-11T01:20:56;103328.84;;;21.18;39.34
67038;BME280;53940;53.204;6.590;2024-01-11T01:23:57;103337.78;;;21.18;39.41
67038;BME280;53940;53.204;6.590;2024-01-11T01:26:58;103338.63;;;21.19;39.40
67038;BME280;53940;53.204;6.590;2024-01-11T01:29:58;103325.22;;;21.19;39.41
67038;BME280;53940;53.204;6.590;2024-01-11T01:32:59;103326.94;;;21.20;39.22
67038;BME280;53940;53.204;6.590;2024-01-11T01:35:59;103332.31;;;21.20;39.43
67038;BME280;53940;53.204;6.590;2024-01-11T01:39:00;103337.66;;;21.20;39.13
67038;BME280;53940;53.204;6.590;2024-01-11T01:42:00;103329.63;;;21.20;38.88
67038;BME280;53940;53.204;6.590;2024-01-11T01:45:00;103317.16;;;21.19;39.04
67038;BME280;53940;53.204;6.590;2024-01-11T01:48:01;103318.91;;;21.20;38.88
67038;BME280;53940;53.204;6.590;2024-01-11T01:51:03;103325.06;;;21.22;38.80
67038;BME280;53940;53.204;6.590;2024-01-11T01:54:03;103321.44;;;21.23;38.92
67038;BME280;53940;53.204;6.590;2024-01-11T01:57:04;103317.00;;;21.22;38.80
67038;BME280;53940;53.204;6.590;2024-01-11T02:00:05;103303.59;;;21.22;38.82
67038;BME280;53940;53.204;6.590;2024-01-11T02:03:05;103314.22;;;21.23;38.87
67038;BME280;53940;53.204;6.590;2024-01-11T02:06:06;103322.28;;;21.23;38.51
67038;BME280;53940;53.204;6.590;2024-01-11T02:09:08;103317.78;;;21.24;38.36
67038;BME280;53940;53.204;6.590;2024-01-11T02:12:10;103319.50;;;21.25;38.76
67038;BME280;53940;53.204;6.590;2024-01-11T02:15:13;103315.88;;;21.26;38.43
67038;BME280;53940;53.204;6.590;2024-01-11T02:18:13;103312.28;;;21.27;38.69
67038;BME280;53940;53.204;6.590;2024-01-11T02:21:14;103323.00;;;21.27;38.39
67038;BME280;53940;53.204;6.590;2024-01-11T02:24:15;103322.91;;;21.28;38.32
67038;BME280;53940;53.204;6.590;2024-01-11T02:27:16;103317.47;;;21.30;38.54
67038;BME280;53940;53.204;6.590;2024-01-11T02:30:16;103326.28;;;21.32;38.38
67038;BME280;53940;53.204;6.590;2024-01-11T02:33:17;103322.75;;;21.32;38.29
67038;BME280;53940;53.204;6.590;2024-01-11T02:36:20;103328.03;;;21.33;38.49
67038;BME280;53940;53.204;6.590;2024-01-11T02:39:22;103321.72;;;21.34;38.28
67038;BME280;53940;53.204;6.590;2024-01-11T02:42:23;103326.13;;;21.35;38.39
67038;BME280;53940;53.204;6.590;2024-01-11T02:45:24;103338.56;;;21.36;38.19
67038;BME280;53940;53.204;6.590;2024-01-11T02:48:30;103324.22;;;21.37;37.93
67038;BME280;53940;53.204;6.590;2024-01-11T02:51:31;103336.66;;;21.38;38.02
67038;BME280;53940;53.204;6.590;2024-01-11T02:54:31;103340.22;;;21.39;38.15
67038;BME280;53940;53.204;6.590;2024-01-11T02:57:31;103328.53;;;21.40;38.20
67038;BME280;53940;53.204;6.590;2024-01-11T03:00:32;103329.31;;;21.42;37.97
67038;BME280;53940;53.204;6.590;2024-01-11T03:03:32;103337.38;;;21.42;37.99
67038;BME280;53940;53.204;6.590;2024-01-11T03:06:32;103332.88;;;21.43;37.93
67038;BME280;53940;53.204;6.590;2024-01-11T03:09:33;103334.59;;;21.44;37.92
67038;BME280;53940;53.204;6.590;2024-01-11T03:12:35;103337.22;;;21.45;37.83
67038;BME280;53940;53.204;6.590;2024-01-11T03:15:35;103340.78;;;21.46;38.07
67038;BME280;53940;53.204;6.590;2024-01-11T03:18:35;103340.66;;;21.47;38.15
67038;BME280;53940;53.204;6.590;2024-01-11T03:21:41;103345.94;;;21.49;38.03
67038;BME280;53940;53.204;6.590;2024-01-11T03:24:41;103342.25;;;21.51;38.22
67038;BME280;53940;53.204;6.590;2024-01-11T03:27:41;103341.97;;;21.56;38.51
67038;BME280;53940;53.204;6.590;2024-01-11T03:30:42;103337.41;;;21.58;38.20
67038;BME280;53940;53.204;6.590;2024-01-11T03:33:43;103332.72;;;21.62;38.64
67038;BME280;53940;53.204;6.590;2024-01-11T03:36:43;103337.16;;;21.63;38.61
67038;BME280;53940;53.204;6.590;2024-01-11T03:39:44;103329.03;;;21.64;38.76
67038;BME280;53940;53.204;6.590;2024-01-11T03:42:44;103330.63;;;21.67;38.80
67038;BME280;53940;53.204;6.590;2024-01-11T03:45:44;103330.56;;;21.68;38.79
67038;BME280;53940;53.204;6.590;2024-01-11T03:48:45;103320.66;;;21.71;38.85
67038;BME280;53940;53.204;6.590;2024-01-11T03:51:45;103326.03;;;21.71;38.82
67038;BME280;53940;53.204;6.590;2024-01-11T03:54:45;103322.38;;;21.72;38.89
67038;BME280;53940;53.204;6.590;2024-01-11T03:57:46;103319.59;;;21.73;38.81
67038;BME280;53940;53.204;6.590;2024-01-11T04:00:46;103326.72;;;21.74;38.92
67038;BME280;53940;53.204;6.590;2024-01-11T04:03:46;103315.09;;;21.74;38.91
67038;BME280;53940;53.204;6.590;2024-01-11T04:06:47;103305.25;;;21.74;39.12
67038;BME280;53940;53.204;6.590;2024-01-11T04:09:47;103314.13;;;21.75;39.22
67038;BME280;53940;53.204;6.590;2024-01-11T04:12:47;103316.81;;;21.75;39.26
67038;BME280;53940;53.204;6.590;2024-01-11T04:15:48;103310.59;;;21.74;39.18
67038;BME280;53940;53.204;6.590;2024-01-11T04:18:48;103311.47;;;21.75;39.25
67038;BME280;53940;53.204;6.590;2024-01-11T04:21:48;103321.34;;;21.74;39.35
67038;BME280;53940;53.204;6.590;2024-01-11T04:24:49;103316.91;;;21.73;39.23
67038;BME280;53940;53.204;6.590;2024-01-11T04:27:49;103315.09;;;21.74;39.54
67038;BME280;53940;53.204;6.590;2024-01-11T04:30:50;103327.56;;;21.75;39.68
67038;BME280;53940;53.204;6.590;2024-01-11T04:33:50;103324.94;;;21.73;39.51
67038;BME280;53940;53.204;6.590;2024-01-11T04:36:50;103335.69;;;21.73;39.61
67038;BME280;53940;53.204;6.590;2024-01-11T04:39:51;103333.88;;;21.74;39.57
67038;BME280;53940;53.204;6.590;2024-01-11T04:42:51;103342.91;;;21.73;39.84
67038;BME280;53940;53.204;6.590;2024-01-11T04:45:52;103349.22;;;21.72;39.96
67038;BME280;53940;53.204;6.590;2024-01-11T04:48:52;103348.34;;;21.71;39.89
67038;BME280;53940;53.204;6.590;2024-01-11T04:51:54;103360.91;;;21.71;39.71
67038;BME280;53940;53.204;6.590;2024-01-11T04:54:54;103367.19;;;21.70;39.95
67038;BME280;53940;53.204;6.590;2024-01-11T04:57:54;103371.69;;;21.69;40.00
67038;BME280;53940;53.204;6.590;2024-01-11T05:00:54;103356.53;;;21.68;40.20
67038;BME280;53940;53.204;6.590;2024-01-11T05:03:55;103355.66;;;21.67;40.12
67038;BME280;53940;53.204;6.590;2024-01-11T05:06:55;103352.09;;;21.67;39.90
67038;BME280;53940;53.204;6.590;2024-01-11T05:09:56;103361.22;;;21.64;40.12
67038;BME280;53940;53.204;6.590;2024-01-11T05:12:56;103365.63;;;21.65;40.14
67038;BME280;53940;53.204;6.590;2024-01-11T05:15:56;103367.50;;;21.63;40.09
67038;BME280;53940;53.204;6.590;2024-01-11T05:18:58;103376.50;;;21.62;40.40
67038;BME280;53940;53.204;6.590;2024-01-11T05:21:58;103365.78;;;21.62;40.26
67038;BME280;53940;53.204;6.590;2024-01-11T05:24:58;103355.06;;;21.62;40.51
67038;BME280;53940;53.204;6.590;2024-01-11T05:28:02;103348.03;;;21.60;40.62
67038;BME280;53940;53.204;6.590;2024-01-11T05:31:05;103362.34;;;21.60;40.35
67038;BME280;53940;53.204;6.590;2024-01-11T05:34:06;103365.97;;;21.59;40.43
67038;BME280;53940;53.204;6.590;2024-01-11T05:37:06;103359.72;;;21.59;40.49
67038;BME280;53940;53.204;6.590;2024-01-11T05:40:09;103349.06;;;21.57;40.70
67038;BME280;53940;53.204;6.590;2024-01-11T05:43:09;103350.03;;;21.56;40.59
67038;BME280;53940;53.204;6.590;2024-01-11T05:46:09;103344.84;;;21.53;40.64
67038;BME280;53940;53.204;6.590;2024-01-11T05:49:10;103344.03;;;21.51;40.58
67038;BME280;53940;53.204;6.590;2024-01-11T05:52:10;103344.03;;;21.51;40.79
67038;BME280;53940;53.204;6.590;2024-01-11T05:55:11;103343.19;;;21.50;40.94
67038;BME280;53940;53.204;6.590;2024-01-11T05:58:11;103334.25;;;21.50;40.90
67038;BME280;53940;53.204;6.590;2024-01-11T06:01:12;103330.81;;;21.48;41.07
67038;BME280;53940;53.204;6.590;2024-01-11T06:04:12;103332.72;;;21.46;40.90
67038;BME280;53940;53.204;6.590;2024-01-11T06:07:12;103347.06;;;21.45;40.88
67038;BME280;53940;53.204;6.590;2024-01-11T06:10:14;103345.34;;;21.44;40.95
67038;BME280;53940;53.204;6.590;2024-01-11T06:13:14;103342.66;;;21.44;40.89
67038;BME280;53940;53.204;6.590;2024-01-11T06:16:15;103331.16;;;21.41;40.90
67038;BME280;53940;53.204;6.590;2024-01-11T06:19:15;103322.34;;;21.39;41.09
67038;BME280;53940;53.204;6.590;2024-01-11T06:22:15;103330.38;;;21.39;41.35
67038;BME280;53940;53.204;6.590;2024-01-11T06:25:16;103330.44;;;21.38;41.25
67038;BME280;53940;53.204;6.590;2024-01-11T06:28:16;103314.34;;;21.38;41.13
67038;BME280;53940;53.204;6.590;2024-01-11T06:31:17;103316.16;;;21.37;40.99
67038;BME280;53940;53.204;6.590;2024-01-11T06:34:18;103303.72;;;21.36;40.89
67038;BME280;53940;53.204;6.590;2024-01-11T06:37:18;103310.88;;;21.36;41.03
67038;BME280;53940;53.204;6.590;2024-01-11T06:40:19;103318.94;;;21.36;40.96
67038;BME280;53940;53.204;6.590;2024-01-11T06:43:19;103297.56;;;21.34;41.45
67038;BME280;53940;53.204;6.590;2024-01-11T06:46:20;103284.25;;;21.33;41.45
67038;BME280;53940;53.204;6.590;2024-01-11T06:49:21;103291.41;;;21.32;41.37
67038;BME280;53940;53.204;6.590;2024-01-11T06:52:22;103288.56;;;21.35;41.39
67038;BME280;53940;53.204;6.590;2024-01-11T06:55:22;103291.31;;;21.34;41.30
67038;BME280;53940;53.204;6.590;2024-01-11T06:58:23;103306.25;;;21.39;41.14
67038;BME280;53940;53.204;6.590;2024-01-11T07:01:23;103316.97;;;21.39;41.21
67038;BME280;53940;53.204;6.590;2024-01-11T07:04:23;103307.28;;;21.37;41.38
67038;BME280;53940;53.204;6.590;2024-01-11T07:07:25;103315.38;;;21.35;41.19
67038;BME280;53940;53.204;6.590;2024-01-11T07:10:26;103330.59;;;21.35;41.55
67038;BME280;53940;53.204;6.590;2024-01-11T07:13:27;103328.03;;;21.33;41.55
67038;BME280;53940;53.204;6.590;2024-01-11T07:16:27;103329.91;;;21.31;41.53
67038;BME280;53940;53.204;6.590;2024-01-11T07:19:27;103325.44;;;21.32;41.45
67038;BME280;53940;53.204;6.590;2024-01-11T07:22:27;103322.81;;;21.30;41.54
67038;BME280;53940;53.204;6.590;2024-01-11T07:25:28;103326.47;;;21.29;41.40
67038;BME280;53940;53.204;6.590;2024-01-11T07:28:28;103332.66;;;21.30;41.63
67038;BME280;53940;53.204;6.590;2024-01-11T07:31:28;103319.38;;;21.28;41.55
67038;BME280;53940;53.204;6.590;2024-01-11T07:34:29;103318.50;;;21.27;41.48
67038;BME280;53940;53.204;6.590;2024-01-11T07:37:29;103317.63;;;21.27;41.38
67038;BME280;53940;53.204;6.590;2024-01-11T07:40:30;103328.38;;;21.27;41.31
67038;BME280;53940;53.204;6.590;2024-01-11T07:43:30;103319.50;;;21.25;41.75
67038;BME280;53940;53.204;6.590;2024-01-11T07:46:35;103324.88;;;21.25;41.32
67038;BME280;53940;53.204;6.590;2024-01-11T07:49:36;103317.78;;;21.24;41.50
67038;BME280;53940;53.204;6.590;2024-01-11T07:52:36;103324.09;;;21.23;41.66
67038;BME280;53940;53.204;6.590;2024-01-11T07:55:37;103319.69;;;21.22;41.65
67038;BME280;53940;53.204;6.590;2024-01-11T07:58:40;103320.63;;;21.21;41.58
67038;BME280;53940;53.204;6.590;2024-01-11T08:01:41;103327.97;;;21.17;41.71
67038;BME280;53940;53.204;6.590;2024-01-11T08:04:42;103336.13;;;21.16;41.78
67038;BME280;53940;53.204;6.590;2024-01-11T08:07:42;103334.34;;;21.14;41.97
67038;BME280;53940;53.204;6.590;2024-01-11T08:10:42;103332.63;;;21.13;42.09
67038;BME280;53940;53.204;6.590;2024-01-11T08:13:43;103331.84;;;21.11;41.96
67038;BME280;53940;53.204;6.590;2024-01-11T08:16:43;103328.31;;;21.11;42.25
67038;BME280;53940;53.204;6.590;2024-01-11T08:19:44;103328.41;;;21.09;42.51
67038;BME280;53940;53.204;6.590;2024-01-11T08:22:44;103331.09;;;21.09;42.52
67038;BME280;53940;53.204;6.590;2024-01-11T08:25:46;103331.09;;;21.09;42.53
67038;BME280;53940;53.204;6.590;2024-01-11T08:28:46;103325.72;;;21.09;42.36
67038;BME280;53940;53.204;6.590;2024-01-11T08:31:47;103331.84;;;21.11;42.44
67038;BME280;53940;53.204;6.590;2024-01-11T08:34:47;103334.53;;;21.11;42.65
67038;BME280;53940;53.204;6.590;2024-01-11T08:37:47;103332.81;;;21.10;42.51
67038;BME280;53940;53.204;6.590;2024-01-11T08:40:48;103340.06;;;21.08;42.54
67038;BME280;53940;53.204;6.590;2024-01-11T08:43:48;103334.69;;;21.08;42.54
67038;BME280;53940;53.204;6.590;2024-01-11T08:46:48;103327.59;;;21.07;42.55
67038;BME280;53940;53.204;6.590;2024-01-11T08:49:49;103311.50;;;21.07;42.95
67038;BME280;53940;53.204;6.590;2024-01-11T08:52:50;103308.84;;;21.07;42.53
67038;BME280;53940;53.204;6.590;2024-01-11T08:55:50;103311.50;;;21.07;42.74
67038;BME280;53940;53.204;6.590;2024-01-11T08:58:50;103306.16;;;21.07;42.79
67038;BME280;53940;53.204;6.590;2024-01-11T09:01:53;103318.59;;;21.08;42.70
67038;BME280;53940;53.204;6.590;2024-01-11T09:04:54;103333.78;;;21.09;42.74
67038;BME280;53940;53.204;6.590;2024-01-11T09:07:54;103331.09;;;21.09;42.90
67038;BME280;53940;53.204;6.590;2024-01-11T09:10:56;103332.81;;;21.10;42.86
67038;BME280;53940;53.204;6.590;2024-01-11T09:13:58;103323.81;;;21.11;42.73
67038;BME280;53940;53.204;6.590;2024-01-11T09:16:59;103322.00;;;21.12;42.71
67038;BME280;53940;53.204;6.590;2024-01-11T09:19:59;103329.00;;;21.14;42.74
67038;BME280;53940;53.204;6.590;2024-01-11T09:23:00;103336.13;;;21.16;42.77
67038;BME280;53940;53.204;6.590;2024-01-11T09:26:03;103327.13;;;21.17;42.91
67038;BME280;53940;53.204;6.590;2024-01-11T09:29:04;103325.41;;;21.16;42.78
67038;BME280;53940;53.204;6.590;2024-01-11T09:32:04;103348.56;;;21.17;42.70
67038;BME280;53940;53.204;6.590;2024-01-11T09:35:05;103352.22;;;21.16;42.73
67038;BME280;53940;53.204;6.590;2024-01-11T09:38:06;103349.53;;;21.16;42.82
67038;BME280;53940;53.204;6.590;2024-01-11T09:41:08;103352.22;;;21.16;42.64
67038;BME280;53940;53.204;6.590;2024-01-11T09:44:09;103361.19;;;21.14;42.53
67038;BME280;53940;53.204;6.590;2024-01-11T09:47:10;103345.19;;;21.13;42.87
67038;BME280;53940;53.204;6.590;2024-01-11T09:50:13;103347.88;;;21.13;42.85
67038;BME280;53940;53.204;6.590;2024-01-11T09:53:20;103353.25;;;21.13;42.86
67038;BME280;53940;53.204;6.590;2024-01-11T09:56:23;103352.34;;;21.12;42.78
67038;BME280;53940;53.204;6.590;2024-01-11T09:59:24;103349.75;;;21.11;42.88
67038;BME280;53940;53.204;6.590;2024-01-11T10:02:26;103350.63;;;21.11;42.91
67038;BME280;53940;53.204;6.590;2024-01-11T10:05:29;103343.53;;;21.10;42.79
67038;BME280;53940;53.204;6.590;2024-01-11T10:08:31;103348.03;;;21.10;42.78
67038;BME280;53940;53.204;6.590;2024-01-11T10:11:32;103354.25;;;21.10;42.94
67038;BME280;53940;53.204;6.590;2024-01-11T10:14:34;103343.63;;;21.09;43.21
67038;BME280;53940;53.204;6.590;2024-01-11T10:17:44;103345.41;;;21.08;42.92
67038;BME280;53940;53.204;6.590;2024-01-11T10:20:44;103354.25;;;21.10;42.91
67038;BME280;53940;53.204;6.590;2024-01-11T10:23:45;103346.22;;;21.10;43.01
67038;BME280;53940;53.204;6.590;2024-01-11T10:26:45;103349.84;;;21.09;43.16
67038;BME280;53940;53.204;6.590;2024-01-11T10:29:46;103342.72;;;21.08;42.81
67038;BME280;53940;53.204;6.590;2024-01-11T10:32:47;103340.94;;;21.09;43.06
67038;BME280;53940;53.204;6.590;2024-01-11T10:35:48;103338.31;;;21.07;43.18
67038;BME280;53940;53.204;6.590;2024-01-11T10:38:52;103325.88;;;21.06;43.33
67038;BME280;53940;53.204;6.590;2024-01-11T10:42:05;103318.72;;;21.07;43.26
67038;BME280;53940;53.204;6.590;2024-01-11T10:45:11;103313.41;;;21.05;43.15
67038;BME280;53940;53.204;6.590;2024-01-11T10:48:15;103315.16;;;21.06;43.25
67038;BME280;53940;53.204;6.590;2024-01-11T10:51:19;103316.03;;;21.07;43.29
67038;BME280;53940;53.204;6.590;2024-01-11T10:54:23;103317.69;;;21.09;43.49
67038;BME280;53940;53.204;6.590;2024-01-11T10:57:24;103309.63;;;21.09;43.43
67038;BME280;53940;53.204;6.590;2024-01-11T11:00:24;103307.72;;;21.11;43.51
67038;BME280;53940;53.204;6.590;2024-01-11T11:03:25;103304.09;;;21.12;43.65
67038;BME280;53940;53.204;6.590;2024-01-11T11:06:26;103312.13;;;21.12;43.67
67038;BME280;53940;53.204;6.590;2024-01-11T11:09:30;103312.13;;;21.12;43.21
67038;BME280;53940;53.204;6.590;2024-01-11T11:12:32;103300.47;;;21.13;43.56
67038;BME280;53940;53.204;6.590;2024-01-11T11:15:35;103299.50;;;21.14;43.14
67038;BME280;53940;53.204;6.590;2024-01-11T11:18:37;103289.72;;;21.13;43.25
67038;BME280;53940;53.204;6.590;2024-01-11T11:21:42;103295.09;;;21.13;43.62
67038;BME280;53940;53.204;6.590;2024-01-11T11:24:43;103295.09;;;21.13;43.21
67038;BME280;53940;53.204;6.590;2024-01-11T11:27:43;103283.59;;;21.11;43.54
67038;BME280;53940;53.204;6.590;2024-01-11T11:30:44;103280.91;;;21.11;43.29
67038;BME280;53940;53.204;6.590;2024-01-11T11:33:48;103268.47;;;21.10;43.46
67038;BME280;53940;53.204;6.590;2024-01-11T11:36:50;103277.34;;;21.11;43.38
67038;BME280;53940;53.204;6.590;2024-01-11T11:39:54;103274.78;;;21.09;43.61
67038;BME280;53940;53.204;6.590;2024-01-11T11:42:56;103274.84;;;21.08;43.17
67038;BME280;53940;53.204;6.590;2024-01-11T11:45:57;103273.97;;;21.07;43.49
67038;BME280;53940;53.204;6.590;2024-01-11T11:48:57;103277.63;;;21.06;43.25
67038;BME280;53940;53.204;6.590;2024-01-11T11:51:58;103273.22;;;21.05;43.70
67038;BME280;53940;53.204;6.590;2024-01-11T11:54:59;103275.88;;;21.05;43.82
67038;BME280;53940;53.204;6.590;2024-01-11T11:57:59;103272.31;;;21.05;43.82
67038;BME280;53940;53.204;6.590;2024-01-11T12:01:01;103275.88;;;21.05;43.79
67038;BME280;53940;53.204;6.590;2024-01-11T12:04:01;103267.91;;;21.04;43.89
67038;BME280;53940;53.204;6.590;2024-01-11T12:07:02;103264.38;;;21.03;43.80
67038;BME280;53940;53.204;6.590;2024-01-11T12:10:04;103254.44;;;21.05;43.65
67038;BME280;53940;53.204;6.590;2024-01-11T12:13:05;103251.00;;;21.03;43.74
67038;BME280;53940;53.204;6.590;2024-01-11T12:16:06;103256.25;;;21.05;43.88
67038;BME280;53940;53.204;6.590;2024-01-11T12:19:07;103255.31;;;21.06;43.82
67038;BME280;53940;53.204;6.590;2024-01-11T12:22:08;103253.56;;;21.05;44.13
67038;BME280;53940;53.204;6.590;2024-01-11T12:25:08;103249.84;;;21.07;43.89
67038;BME280;53940;53.204;6.590;2024-01-11T12:28:09;103250.66;;;21.09;43.81
67038;BME280;53940;53.204;6.590;2024-01-11T12:31:09;103238.16;;;21.08;44.09
67038;BME280;53940;53.204;6.590;2024-01-11T12:34:13;103235.59;;;21.07;43.83
67038;BME280;53940;53.204;6.590;2024-01-11T12:37:15;103224.00;;;21.06;43.93
67038;BME280;53940;53.204;6.590;2024-01-11T12:40:16;103220.47;;;21.06;43.84
67038;BME280;53940;53.204;6.590;2024-01-11T12:43:16;103214.16;;;21.07;43.94
67038;BME280;53940;53.204;6.590;2024-01-11T12:46:17;103209.75;;;21.06;44.09
67038;BME280;53940;53.204;6.590;2024-01-11T12:49:17;103200.81;;;21.05;43.86
67038;BME280;53940;53.204;6.590;2024-01-11T12:52:18;103199.94;;;21.05;44.34
67038;BME280;53940;53.204;6.590;2024-01-11T12:55:20;103199.94;;;21.05;44.30
67038;BME280;53940;53.204;6.590;2024-01-11T12:58:21;103185.69;;;21.04;43.99
67038;BME280;53940;53.204;6.590;2024-01-11T13:01:22;103188.38;;;21.04;44.29
67038;BME280;53940;53.204;6.590;2024-01-11T13:04:22;103195.47;;;21.05;44.34
67038;BME280;53940;53.204;6.590;2024-01-11T13:07:23;103192.78;;;21.05;44.44
67038;BME280;53940;53.204;6.590;2024-01-11T13:10:23;103198.13;;;21.05;44.36
67038;BME280;53940;53.204;6.590;2024-01-11T13:13:28;103198.13;;;21.05;44.36
67038;BME280;53940;53.204;6.590;2024-01-11T13:16:30;103194.50;;;21.06;44.55
67038;BME280;53940;53.204;6.590;2024-01-11T13:19:30;103194.34;;;21.09;44.73
67038;BME280;53940;53.204;6.590;2024-01-11T13:22:31;103191.47;;;21.12;44.83
67038;BME280;53940;53.204;6.590;2024-01-11T13:25:31;103181.53;;;21.14;44.66
67038;BME280;53940;53.204;6.590;2024-01-11T13:28:32;103167.97;;;21.18;45.03
67038;BME280;53940;53.204;6.590;2024-01-11T13:31:33;103171.25;;;21.23;45.22
67038;BME280;53940;53.204;6.590;2024-01-11T13:34:33;103175.56;;;21.25;45.25
67038;BME280;53940;53.204;6.590;2024-01-11T13:37:34;103174.53;;;21.28;45.60
67038;BME280;53940;53.204;6.590;2024-01-11T13:40:34;103165.53;;;21.29;45.67
67038;BME280;53940;53.204;6.590;2024-01-11T13:43:35;103163.63;;;21.31;45.96
67038;BME280;53940;53.204;6.590;2024-01-11T13:46:35;103169.78;;;21.33;45.79
67038;BME280;53940;53.204;6.590;2024-01-11T13:49:36;103158.09;;;21.34;45.49
67038;BME280;53940;53.204;6.590;2024-01-11T13:52:36;103163.47;;;21.34;45.84
67038;BME280;53940;53.204;6.590;2024-01-11T13:55:36;103160.66;;;21.36;45.69
67038;BME280;53940;53.204;6.590;2024-01-11T13:58:39;103167.78;;;21.37;45.55
67038;BME280;53940;53.204;6.590;2024-01-11T14:01:40;103172.28;;;21.36;45.26
67038;BME280;53940;53.204;6.590;2024-01-11T14:04:40;103170.56;;;21.35;45.15
67038;BME280;53940;53.204;6.590;2024-01-11T14:07:42;103171.50;;;21.34;45.43
67038;BME280;53940;53.204;6.590;2024-01-11T14:10:43;103168.81;;;21.34;45.18
67038;BME280;53940;53.204;6.590;2024-01-11T14:13:43;103170.63;;;21.34;45.20
67038;BME280;53940;53.204;6.590;2024-01-11T14:16:44;103179.56;;;21.34;45.26
67038;BME280;53940;53.204;6.590;2024-01-11T14:19:45;103178.69;;;21.34;44.87
67038;BME280;53940;53.204;6.590;2024-01-11T14:22:46;103179.44;;;21.36;44.74
67038;BME280;53940;53.204;6.590;2024-01-11T14:25:49;103171.41;;;21.36;45.07
67038;BME280;53940;53.204;6.590;2024-01-11T14:28:50;103163.47;;;21.34;44.79
67038;BME280;53940;53.204;6.590;2024-01-11T14:31:51;103158.09;;;21.34;44.65
67038;BME280;53940;53.204;6.590;2024-01-11T14:34:52;103148.31;;;21.33;44.58
67038;BME280;53940;53.204;6.590;2024-01-11T14:37:53;103151.94;;;21.32;44.25
67038;BME280;53940;53.204;6.590;2024-01-11T14:40:53;103140.44;;;21.30;44.11
67038;BME280;53940;53.204;6.590;2024-01-11T14:43:53;103138.72;;;21.29;44.18
67038;BME280;53940;53.204;6.590;2024-01-11T14:46:55;103150.41;;;21.28;44.42
67038;BME280;53940;53.204;6.590;2024-01-11T14:49:55;103147.72;;;21.28;44.37
67038;BME280;53940;53.204;6.590;2024-01-11T14:52:56;103142.44;;;21.26;44.02
67038;BME280;53940;53.204;6.590;2024-01-11T14:55:56;103139.00;;;21.24;44.33
67038;BME280;53940;53.204;6.590;2024-01-11T14:58:56;103144.34;;;21.24;44.19
67038;BME280;53940;53.204;6.590;2024-01-11T15:01:57;103149.78;;;21.23;44.21
67038;BME280;53940;53.204;6.590;2024-01-11T15:04:57;103154.28;;;21.22;43.91
67038;BME280;53940;53.204;6.590;2024-01-11T15:07:59;103155.31;;;21.20;44.18
67038;BME280;53940;53.204;6.590;2024-01-11T15:10:59;103157.03;;;21.21;43.83
67038;BME280;53940;53.204;6.590;2024-01-11T15:14:00;103161.72;;;21.17;43.83
67038;BME280;53940;53.204;6.590;2024-01-11T15:17:00;103171.59;;;21.17;43.75
67038;BME280;53940;53.204;6.590;2024-01-11T15:20:02;103168.13;;;21.14;43.70
67038;BME280;53940;53.204;6.590;2024-01-11T15:23:04;103168.13;;;21.14;43.84
67038;BME280;53940;53.204;6.590;2024-01-11T15:26:05;103161.03;;;21.13;43.61
67038;BME280;53940;53.204;6.590;2024-01-11T15:29:05;103168.31;;;21.11;43.82
67038;BME280;53940;53.204;6.590;2024-01-11T15:32:06;103170.97;;;21.11;43.51
67038;BME280;53940;53.204;6.590;2024-01-11T15:35:06;103177.31;;;21.10;43.65
67038;BME280;53940;53.204;6.590;2024-01-11T15:38:12;103167.63;;;21.08;43.57
67038;BME280;53940;53.204;6.590;2024-01-11T15:41:12;103178.41;;;21.06;43.80
67038;BME280;53940;53.204;6.590;2024-01-11T15:44:12;103184.72;;;21.05;43.74
67038;BME280;53940;53.204;6.590;2024-01-11T15:47:13;103189.31;;;21.03;43.64